createdAt,value
2023-01-27T00:03:51.569Z,14.48
2023-01-27T00:08:53.693Z,12.80
2023-01-27T00:13:56.174Z,10.57
2023-01-27T00:18:58.508Z,13.50
2023-01-27T00:24:19.359Z,14.13
2023-01-27T00:29:21.669Z,13.77
2023-01-27T00:34:23.719Z,7.85
2023-01-27T00:39:25.791Z,9.95
2023-01-27T00:44:27.909Z,11.13
2023-01-27T00:49:30.108Z,15.65
2023-01-27T00:54:32.361Z,13.13
2023-01-27T00:59:34.511Z,10.65
2023-01-27T01:04:36.686Z,11.68
2023-01-27T01:09:38.744Z,16.35
2023-01-27T01:14:40.938Z,21.85
2023-01-27T01:19:43.093Z,18.75
2023-01-27T01:24:45.206Z,17.73
2023-01-27T01:29:47.503Z,20.58
2023-01-27T01:34:49.560Z,13.93
2023-01-27T01:39:51.659Z,13.95
2023-01-27T01:45:31.844Z,16.02
2023-01-27T01:50:35.612Z,15.55
2023-01-27T01:55:38.933Z,13.05
2023-01-27T02:00:41.594Z,10.40
2023-01-27T02:05:45.789Z,9.07
2023-01-27T02:10:48.547Z,8.52
2023-01-27T02:15:54.140Z,8.13
2023-01-27T02:20:57.169Z,8.90
2023-01-27T02:26:36.685Z,9.90
2023-01-27T02:31:39.647Z,8.57
2023-01-27T02:36:48.094Z,8.85
2023-01-27T02:41:57.288Z,8.45
2023-01-27T02:46:59.534Z,7.90
2023-01-27T02:52:01.945Z,9.15
2023-01-27T02:57:04.093Z,8.02
2023-01-27T03:02:07.452Z,8.13
2023-01-27T03:07:09.640Z,7.65
2023-01-27T03:12:20.905Z,6.40
2023-01-27T03:17:41.582Z,5.32
2023-01-27T03:27:46.073Z,6.70
2023-01-27T03:32:54.749Z,5.47
2023-01-27T03:38:15.524Z,6.10
2023-01-27T03:48:38.855Z,6.20
2023-01-27T03:53:40.976Z,6.90
2023-01-27T03:58:44.171Z,7.25
2023-01-27T04:04:05.914Z,9.68
2023-01-27T04:09:09.778Z,11.50
2023-01-27T04:14:13.755Z,11.77
2023-01-27T04:19:15.917Z,9.68
2023-01-27T04:24:22.969Z,11.60
2023-01-27T04:29:28.324Z,13.38
2023-01-27T04:34:30.773Z,12.70
2023-01-27T04:39:33.556Z,10.23
2023-01-27T04:44:35.719Z,8.55
2023-01-27T04:49:37.810Z,10.57
2023-01-27T04:54:40.029Z,10.68
2023-01-27T04:59:42.155Z,9.45
2023-01-27T05:04:44.373Z,9.65
2023-01-27T05:09:46.438Z,11.10
2023-01-27T05:14:48.567Z,10.18
2023-01-27T05:19:50.901Z,10.63
2023-01-27T05:24:52.975Z,12.80
2023-01-27T05:29:55.253Z,11.90
2023-01-27T05:34:57.369Z,12.20
2023-01-27T05:40:02.738Z,13.25
2023-01-27T05:45:05.245Z,13.93
2023-01-27T05:50:08.058Z,23.52
2023-01-27T05:55:10.422Z,19.00
2023-01-27T06:00:12.988Z,24.85
2023-01-27T06:05:15.667Z,21.48
2023-01-27T06:10:18.320Z,19.20
2023-01-27T06:15:20.437Z,22.45
2023-01-27T06:20:22.583Z,18.75
2023-01-27T06:25:24.721Z,25.00
2023-01-27T06:30:27.076Z,22.98
2023-01-27T06:35:29.836Z,23.55
2023-01-27T06:40:33.543Z,16.33
2023-01-27T06:45:35.717Z,16.48
2023-01-27T06:50:38.068Z,15.35
2023-01-27T06:55:42.084Z,16.77
2023-01-27T07:00:44.858Z,13.95
2023-01-27T07:05:46.984Z,12.75
2023-01-27T07:10:49.166Z,13.55
2023-01-27T07:16:00.726Z,10.43
2023-01-27T07:21:06.014Z,14.70
2023-01-27T07:26:23.326Z,13.75
2023-01-27T07:31:27.239Z,12.75
2023-01-27T07:36:29.395Z,14.45
2023-01-27T07:41:31.703Z,17.42
2023-01-27T07:46:33.865Z,14.93
2023-01-27T07:51:36.067Z,11.32
2023-01-27T07:56:38.665Z,10.80
2023-01-27T08:01:42.149Z,13.40
2023-01-27T08:06:44.577Z,12.98
2023-01-27T08:11:46.991Z,11.35
2023-01-27T08:16:49.245Z,13.75
2023-01-27T08:21:51.604Z,10.18
2023-01-27T08:26:53.852Z,9.65
2023-01-27T08:31:56.054Z,10.32
2023-01-27T08:36:58.209Z,10.95
2023-01-27T08:42:01.082Z,14.50
2023-01-27T08:47:03.301Z,11.18
2023-01-27T08:52:05.554Z,21.30
2023-01-27T08:57:07.706Z,11.55
2023-01-27T09:02:13.113Z,11.77
2023-01-27T09:07:15.467Z,12.27
2023-01-27T09:12:17.847Z,15.25
2023-01-27T09:17:20.224Z,17.95
2023-01-27T09:22:22.326Z,11.95
2023-01-27T09:27:38.070Z,21.08
2023-01-27T09:32:41.904Z,17.88
2023-01-27T09:37:50.978Z,7.15
2023-01-27T09:43:21.328Z,11.43
2023-01-27T09:48:33.613Z,6.25
2023-01-27T09:53:45.231Z,8.98
2023-01-27T09:59:13.402Z,14.52
2023-01-27T10:04:53.887Z,7.90
2023-01-27T10:10:20.985Z,12.33
2023-01-27T10:15:46.772Z,7.75
2023-01-27T10:21:04.306Z,9.25
2023-01-27T10:26:36.226Z,9.95
2023-01-27T10:31:48.665Z,7.07
2023-01-27T10:37:04.854Z,7.63
2023-01-27T10:42:21.789Z,7.50
2023-01-27T10:47:45.215Z,9.02
2023-01-27T10:53:10.715Z,10.45
2023-01-27T10:58:29.233Z,6.70
2023-01-27T11:03:34.009Z,13.50
2023-01-27T11:08:39.358Z,9.20
2023-01-27T11:13:42.246Z,8.65
2023-01-27T11:18:47.059Z,6.82
2023-01-27T11:23:56.198Z,8.30
2023-01-27T11:29:01.816Z,8.70
2023-01-27T11:34:22.620Z,11.20
2023-01-27T11:39:26.388Z,9.90
2023-01-27T11:44:33.118Z,9.93
2023-01-27T11:49:41.473Z,9.30
2023-01-27T11:54:50.531Z,10.55
2023-01-27T12:00:13.444Z,10.38
2023-01-27T12:05:25.394Z,6.65
2023-01-27T12:10:44.294Z,9.63
2023-01-27T12:16:01.068Z,5.93
2023-01-27T12:21:07.049Z,10.52
2023-01-27T12:26:12.273Z,7.32
2023-01-27T12:31:21.487Z,7.05
2023-01-27T12:36:24.957Z,8.23
2023-01-27T12:41:29.310Z,13.77
2023-01-27T12:46:32.802Z,10.27
2023-01-27T12:51:42.247Z,8.48
2023-01-27T12:56:44.682Z,8.48
2023-01-27T13:02:00.518Z,9.93
2023-01-27T13:07:02.699Z,18.73
2023-01-27T13:12:19.730Z,17.63
2023-01-27T13:17:45.355Z,10.10
2023-01-27T13:22:51.779Z,8.27
2023-01-27T13:27:59.266Z,12.40
2023-01-27T13:33:25.273Z,12.00
2023-01-27T13:38:49.585Z,10.65
2023-01-27T13:44:21.616Z,72.47
2023-01-27T13:49:47.213Z,31.75
2023-01-27T13:54:49.403Z,13.23
2023-01-27T14:00:16.660Z,10.95
2023-01-27T14:05:40.362Z,14.02
2023-01-27T14:11:04.662Z,14.35
2023-01-27T14:16:38.686Z,10.77
2023-01-27T14:21:51.925Z,12.75
2023-01-27T14:27:18.256Z,13.30
2023-01-27T14:32:23.227Z,15.23
2023-01-27T14:37:36.095Z,14.43
2023-01-27T14:43:08.098Z,17.20
2023-01-27T14:48:30.380Z,9.90
2023-01-27T14:54:14.507Z,11.75
2023-01-27T14:59:37.892Z,14.80
2023-01-27T15:04:54.774Z,16.15
2023-01-27T15:10:19.749Z,14.23
2023-01-27T15:15:38.535Z,17.15
2023-01-27T15:21:10.706Z,15.88
2023-01-27T15:26:15.268Z,16.23
2023-01-27T15:31:18.017Z,23.17
2023-01-27T15:36:30.288Z,35.33
2023-01-27T15:41:33.007Z,44.80
2023-01-27T15:46:37.092Z,26.15
2023-01-27T15:51:39.709Z,32.28
2023-01-27T15:57:05.729Z,28.13
2023-01-27T16:02:17.901Z,35.40
2023-01-27T16:07:50.395Z,36.72
2023-01-27T16:13:14.900Z,45.63
2023-01-27T16:18:16.928Z,44.95
2023-01-27T16:23:40.159Z,54.00
2023-01-27T16:28:47.302Z,66.18
2023-01-27T16:33:55.568Z,79.90
2023-01-27T16:39:21.535Z,56.47
2023-01-27T16:44:31.320Z,48.00
2023-01-27T16:49:40.748Z,47.97
2023-01-27T16:54:44.957Z,48.58
2023-01-27T16:59:47.688Z,49.60
2023-01-27T17:04:52.812Z,53.45
2023-01-27T17:10:01.422Z,60.13
2023-01-27T17:15:19.954Z,67.53
2023-01-27T17:20:30.291Z,84.32
2023-01-27T17:25:37.082Z,68.53
2023-01-27T17:30:42.485Z,70.80
2023-01-27T17:35:51.766Z,70.80
2023-01-27T17:40:55.535Z,78.47
2023-01-27T17:46:06.742Z,77.70
2023-01-27T17:51:13.377Z,95.90
2023-01-27T17:56:27.481Z,91.75
2023-01-27T18:01:30.782Z,79.40
2023-01-27T18:06:33.876Z,82.43
2023-01-27T18:11:37.827Z,74.07
2023-01-27T18:16:40.178Z,66.65
2023-01-27T18:21:42.451Z,63.90
2023-01-27T18:26:44.774Z,66.38
2023-01-27T18:31:56.345Z,107.10
2023-01-27T18:36:58.665Z,84.22
2023-01-27T18:42:02.269Z,82.20
2023-01-27T18:47:19.609Z,65.68
2023-01-27T18:52:22.130Z,79.18
2023-01-27T18:57:24.409Z,74.97
2023-01-27T19:02:26.861Z,74.18
2023-01-27T19:07:29.598Z,79.95
2023-01-27T19:12:32.905Z,91.35
2023-01-27T19:17:35.247Z,79.82
2023-01-27T19:22:37.687Z,71.35
2023-01-27T19:27:43.122Z,76.53
2023-01-27T19:32:45.440Z,76.97
2023-01-27T19:37:49.006Z,67.63
2023-01-27T19:42:51.392Z,70.22
2023-01-27T19:47:53.906Z,77.20
2023-01-27T19:52:56.844Z,71.85
2023-01-27T19:57:59.231Z,80.65
2023-01-27T20:03:02.382Z,86.53
2023-01-27T20:08:04.689Z,69.05
2023-01-27T20:13:07.763Z,72.05
2023-01-27T20:18:13.970Z,101.38
2023-01-27T20:23:16.352Z,143.90
2023-01-27T20:28:18.649Z,122.78
2023-01-27T20:33:21.033Z,102.20
2023-01-27T20:38:23.191Z,123.65
2023-01-27T20:43:34.707Z,125.32
2023-01-27T20:48:37.490Z,99.10
2023-01-27T20:53:46.154Z,114.47
2023-01-27T20:58:49.347Z,104.78
2023-01-27T21:03:52.218Z,93.22
2023-01-27T21:08:54.287Z,78.95
2023-01-27T21:13:56.504Z,76.03
2023-01-27T21:18:58.613Z,80.53
2023-01-27T21:24:01.029Z,90.88
2023-01-27T21:29:06.848Z,89.75
2023-01-27T21:34:10.828Z,82.57
2023-01-27T21:39:12.986Z,82.47
2023-01-27T21:44:48.688Z,83.55
2023-01-27T21:50:03.367Z,85.82
2023-01-27T21:55:12.176Z,90.82
2023-01-27T22:00:16.916Z,87.07
2023-01-27T22:05:19.192Z,87.85
2023-01-27T22:10:24.288Z,79.72
2023-01-27T22:15:30.558Z,88.75
2023-01-27T22:20:32.689Z,94.28
2023-01-27T22:25:34.963Z,101.07
2023-01-27T22:30:37.621Z,84.55
2023-01-27T22:35:39.894Z,78.85
2023-01-27T22:40:41.976Z,78.28
2023-01-27T22:45:44.440Z,74.03
2023-01-27T22:50:46.641Z,75.78
2023-01-27T22:56:00.233Z,70.90
2023-01-27T23:01:06.352Z,75.68
2023-01-27T23:06:09.543Z,64.20
2023-01-27T23:11:12.256Z,62.85
2023-01-27T23:16:14.452Z,67.35
2023-01-27T23:21:16.932Z,69.05
2023-01-27T23:26:19.466Z,66.57
2023-01-27T23:31:21.681Z,73.78
2023-01-27T23:36:23.945Z,65.63
2023-01-27T23:41:26.002Z,70.68
2023-01-27T23:46:28.288Z,63.80
2023-01-27T23:51:30.663Z,57.80
2023-01-27T23:56:32.776Z,51.45
